Time;durP1;ratioP1;P1;durP2;ratioP2;P2;SDS_P1;SDS_P2;PMS_P1;PMS_P2;Temp;Humidity;BMP_temperature;BMP_pressure;BME280_temperature;BME280_humidity;BME280_pressure;Samples;Min_cycle;Max_cycle;Signal;HPM_P1;HPM_P2
2023/12/11 00:00:55;;;;;;;7.77;2.87;;;9.80;99.90;;;;;;5033049;28;20447;-62
2023/12/11 00:03:22;;;;;;;6.40;2.20;;;9.80;99.90;;;;;;5033113;28;20472;-62
2023/12/11 00:05:49;;;;;;;6.17;2.33;;;9.90;99.90;;;;;;5033152;28;20533;-62
2023/12/11 00:08:16;;;;;;;3.90;2.70;;;9.90;99.90;;;;;;5033450;28;20532;-62
2023/12/11 00:10:44;;;;;;;9.27;2.67;;;10.00;99.90;;;;;;5033236;28;20528;-63
2023/12/11 00:13:11;;;;;;;4.17;2.10;;;10.00;99.90;;;;;;5032978;28;20858;-60
2023/12/11 00:15:39;;;;;;;6.47;2.30;;;10.00;99.90;;;;;;5033258;28;20445;-62
2023/12/11 00:18:06;;;;;;;4.43;2.30;;;10.00;99.90;;;;;;5033417;28;20479;-61
2023/12/11 00:20:33;;;;;;;5.70;2.40;;;10.00;99.90;;;;;;5033003;28;20448;-60
2023/12/11 00:23:00;;;;;;;7.00;2.90;;;10.00;99.90;;;;;;5033046;28;20548;-62
2023/12/11 00:25:28;;;;;;;8.37;2.53;;;9.90;99.90;;;;;;5033477;28;20801;-62
2023/12/11 00:27:56;;;;;;;9.10;2.58;;;9.90;99.90;;;;;;5034633;28;20479;-62
2023/12/11 00:30:23;;;;;;;9.93;2.50;;;9.80;99.90;;;;;;5036931;28;20288;-62
2023/12/11 00:32:50;;;;;;;6.63;3.17;;;9.80;99.90;;;;;;5037267;28;20492;-61
2023/12/11 00:35:17;;;;;;;13.93;3.00;;;9.70;99.90;;;;;;5037041;28;20881;-61
2023/12/11 00:37:44;;;;;;;5.93;2.08;;;9.70;99.90;;;;;;5037040;28;20476;-59
2023/12/11 00:40:12;;;;;;;8.07;2.70;;;9.70;99.90;;;;;;5036815;28;20202;-62
2023/12/11 00:42:39;;;;;;;6.93;2.75;;;9.70;99.90;;;;;;5036973;28;20726;-62
2023/12/11 00:45:08;;;;;;;7.18;3.28;;;9.70;99.90;;;;;;5036937;28;20234;-61
2023/12/11 00:47:35;;;;;;;11.00;3.00;;;9.70;99.90;;;;;;5037134;28;20206;-62
2023/12/11 00:50:02;;;;;;;7.93;3.30;;;9.70;99.90;;;;;;5037233;28;20629;-68
2023/12/11 00:52:29;;;;;;;7.05;2.80;;;9.70;99.90;;;;;;5037114;28;20484;-61
2023/12/11 00:54:55;;;;;;;11.27;2.80;;;9.60;99.90;;;;;;5036424;28;20289;-62
2023/12/11 00:57:22;;;;;;;5.73;2.70;;;9.60;99.90;;;;;;5037087;28;20563;-62
2023/12/11 00:59:49;;;;;;;14.05;3.47;;;9.60;99.90;;;;;;5036752;28;20535;-62
2023/12/11 01:02:18;;;;;;;5.93;2.50;;;9.60;99.90;;;;;;5036977;28;20272;-61
2023/12/11 01:04:45;;;;;;;10.40;3.42;;;9.60;99.90;;;;;;5038062;28;20451;-61
2023/12/11 01:07:12;;;;;;;7.63;2.93;;;9.60;99.90;;;;;;5038700;28;20210;-61
2023/12/11 01:09:41;;;;;;;8.32;2.75;;;9.60;99.90;;;;;;5036397;28;20532;-60
2023/12/11 01:12:08;;;;;;;6.03;2.60;;;9.60;99.90;;;;;;5036882;28;20225;-61
2023/12/11 01:14:35;;;;;;;11.33;3.00;;;9.60;99.90;;;;;;5036365;28;20276;-61
2023/12/11 01:17:02;;;;;;;9.50;2.70;;;9.70;99.90;;;;;;5036412;28;20762;-62
2023/12/11 01:19:30;;;;;;;8.05;3.30;;;9.70;99.90;;;;;;5036318;28;20441;-62
2023/12/11 01:21:57;;;;;;;9.77;2.40;;;9.70;99.90;;;;;;5036293;28;20735;-62
2023/12/11 01:24:23;;;;;;;10.57;2.80;;;9.70;99.90;;;;;;5036338;28;20449;-61
2023/12/11 01:26:50;;;;;;;16.95;3.30;;;9.70;99.90;;;;;;5036504;28;20241;-61
2023/12/11 01:29:17;;;;;;;9.20;2.60;;;9.70;99.90;;;;;;5036987;28;20285;-61
2023/12/11 01:31:44;;;;;;;7.13;2.57;;;9.70;99.90;;;;;;5036468;28;20487;-61
2023/12/11 01:34:11;;;;;;;7.10;2.50;;;9.70;99.90;;;;;;5036341;28;20543;-61
2023/12/11 01:36:39;;;;;;;8.30;2.40;;;9.80;99.90;;;;;;5035802;28;20532;-63
2023/12/11 01:39:06;;;;;;;7.23;2.30;;;9.80;99.90;;;;;;5035117;28;20309;-62
2023/12/11 01:41:33;;;;;;;8.80;2.80;;;9.80;99.90;;;;;;5035478;28;20548;-62
2023/12/11 01:44:00;;;;;;;9.48;3.05;;;9.80;99.90;;;;;;5036296;28;20451;-62
2023/12/11 01:46:27;;;;;;;13.87;3.37;;;9.80;99.90;;;;;;5035644;28;20289;-62
2023/12/11 01:48:54;;;;;;;13.07;3.70;;;9.90;99.90;;;;;;5035699;28;20437;-61
2023/12/11 01:51:21;;;;;;;10.20;2.50;;;9.90;99.90;;;;;;5036185;28;20524;-61
2023/12/11 01:53:51;;;;;;;8.97;2.97;;;9.90;99.90;;;;;;5035681;28;20452;-62
2023/12/11 01:56:18;;;;;;;12.60;2.80;;;10.00;99.90;;;;;;5036638;28;20820;-61
2023/12/11 01:58:46;;;;;;;8.57;3.70;;;10.00;99.90;;;;;;5035781;28;20909;-61
2023/12/11 02:01:14;;;;;;;8.40;3.07;;;10.00;99.90;;;;;;5035619;28;20480;-60
2023/12/11 02:03:41;;;;;;;14.47;3.80;;;10.00;99.90;;;;;;5038718;28;20453;-62
2023/12/11 02:06:08;;;;;;;12.10;3.93;;;10.00;99.90;;;;;;5038501;28;20524;-62
2023/12/11 02:08:35;;;;;;;11.30;3.23;;;10.00;99.90;;;;;;5036324;28;20520;-62
2023/12/11 02:11:04;;;;;;;10.40;3.20;;;10.00;99.90;;;;;;5035420;28;20569;-62
2023/12/11 02:13:31;;;;;;;18.70;3.87;;;10.10;99.90;;;;;;5036041;28;20449;-61
2023/12/11 02:15:58;;;;;;;10.97;3.57;;;10.10;99.90;;;;;;5035592;28;21014;-63
2023/12/11 02:18:25;;;;;;;15.50;3.90;;;10.00;99.90;;;;;;5035732;28;20483;-63
2023/12/11 02:20:52;;;;;;;18.70;4.23;;;10.00;99.90;;;;;;5035497;28;20449;-62
2023/12/11 02:23:28;;;;;;;17.10;3.30;;;10.00;99.90;;;;;;5035625;28;20540;-61
2023/12/11 02:26:08;;;;;;;12.03;3.90;;;10.00;99.90;;;;;;5035456;28;20464;-60
2023/12/11 02:28:35;;;;;;;13.33;3.20;;;10.00;99.90;;;;;;5035427;28;20792;-61
2023/12/11 02:31:02;;;;;;;13.17;3.83;;;10.10;99.90;;;;;;5035063;28;20496;-61
2023/12/11 02:33:29;;;;;;;13.10;3.40;;;10.10;99.90;;;;;;5034929;28;20524;-61
2023/12/11 02:35:56;;;;;;;11.83;2.80;;;10.00;99.90;;;;;;5034783;28;20531;-62
2023/12/11 02:38:23;;;;;;;13.90;4.00;;;10.00;99.90;;;;;;5035286;28;20580;-62
2023/12/11 02:40:50;;;;;;;17.43;3.73;;;9.90;99.90;;;;;;5035464;28;20572;-63
2023/12/11 02:43:18;;;;;;;8.03;3.40;;;9.90;99.90;;;;;;5035019;28;20535;-61
2023/12/11 02:45:45;;;;;;;11.60;3.00;;;9.90;99.90;;;;;;5034871;28;20520;-62
2023/12/11 02:48:12;;;;;;;16.80;3.67;;;9.90;99.90;;;;;;5034536;28;20524;-62
2023/12/11 02:50:39;;;;;;;16.00;4.23;;;10.00;99.90;;;;;;5033893;28;21006;-61
2023/12/11 02:53:06;;;;;;;20.90;4.70;;;9.90;99.90;;;;;;5034014;28;20452;-62
2023/12/11 02:55:33;;;;;;;13.53;3.93;;;9.90;99.90;;;;;;5035137;28;20451;-61
2023/12/11 02:58:01;;;;;;;14.50;3.63;;;9.90;99.90;;;;;;5034654;28;20491;-62
2023/12/11 03:00:31;;;;;;;18.20;4.47;;;9.90;99.90;;;;;;5034054;28;20465;-63
2023/12/11 03:02:58;;;;;;;7.80;2.80;;;9.90;99.90;;;;;;5034337;28;20473;-63
2023/12/11 03:05:25;;;;;;;10.67;3.40;;;9.90;99.90;;;;;;5035621;28;20485;-63
2023/12/11 03:07:52;;;;;;;15.67;4.20;;;9.90;99.90;;;;;;5034763;28;20480;-61
2023/12/11 03:10:19;;;;;;;10.73;3.80;;;9.90;99.90;;;;;;5034367;28;20473;-62
2023/12/11 03:12:46;;;;;;;13.87;4.07;;;9.80;99.90;;;;;;5034975;28;20493;-62
2023/12/11 03:15:13;;;;;;;11.50;3.72;;;9.70;99.90;;;;;;5035338;28;20455;-62
2023/12/11 03:17:41;;;;;;;14.90;4.10;;;9.70;99.90;;;;;;5034526;28;20237;-62
2023/12/11 03:20:12;;;;;;;17.63;4.20;;;9.70;99.90;;;;;;5034190;28;20473;-62
2023/12/11 03:22:39;;;;;;;10.80;3.97;;;9.60;99.90;;;;;;5034519;28;20236;-62
2023/12/11 03:25:06;;;;;;;11.50;4.40;;;9.60;99.90;;;;;;5036948;28;20532;-62
2023/12/11 03:27:33;;;;;;;11.38;3.95;;;9.60;99.90;;;;;;5034485;28;20441;-62
2023/12/11 03:30:00;;;;;;;11.23;3.45;;;9.60;99.90;;;;;;5033546;28;20201;-62
2023/12/11 03:32:27;;;;;;;14.90;4.07;;;9.60;99.90;;;;;;5033743;28;20661;-62
2023/12/11 03:34:55;;;;;;;10.52;3.75;;;9.60;99.90;;;;;;5034951;28;20472;-62
2023/12/11 03:37:22;;;;;;;10.70;4.13;;;9.60;99.90;;;;;;5035036;28;20206;-62
2023/12/11 03:39:49;;;;;;;14.97;4.67;;;9.60;99.90;;;;;;5034453;28;20484;-63
2023/12/11 03:42:16;;;;;;;14.07;3.93;;;9.60;99.90;;;;;;5036854;28;20504;-62
2023/12/11 03:44:43;;;;;;;10.33;3.40;;;9.50;99.90;;;;;;5036162;28;20461;-62
2023/12/11 03:47:09;;;;;;;13.77;4.50;;;9.50;99.90;;;;;;5036167;28;20524;-63
2023/12/11 03:49:36;;;;;;;15.38;4.32;;;9.50;99.90;;;;;;5034580;28;20229;-62
2023/12/11 03:52:05;;;;;;;13.70;4.43;;;9.50;99.90;;;;;;5035263;28;20767;-63
2023/12/11 03:54:32;;;;;;;12.43;4.18;;;9.40;99.90;;;;;;5036388;28;20242;-61
2023/12/11 03:56:59;;;;;;;20.10;5.22;;;9.40;99.90;;;;;;5033590;28;20209;-63
2023/12/11 03:59:26;;;;;;;12.93;4.10;;;9.40;99.90;;;;;;5033340;28;20222;-62
2023/12/11 04:01:53;;;;;;;11.07;4.10;;;9.30;99.90;;;;;;5033230;28;20504;-62
2023/12/11 04:04:19;;;;;;;12.40;4.50;;;9.30;99.90;;;;;;5033022;28;20815;-63
2023/12/11 04:06:46;;;;;;;14.90;4.63;;;9.30;99.90;;;;;;5032976;28;20639;-62
2023/12/11 04:12:44;;;;;;;19.92;5.68;;;9.20;99.90;;;;;;5132325;27;20572;-64
2023/12/11 04:15:11;;;;;;;18.90;5.30;;;9.20;99.90;;;;;;5132495;27;20685;-64
2023/12/11 04:17:38;;;;;;;15.35;4.65;;;9.10;99.90;;;;;;5132103;27;20468;-63
2023/12/11 04:20:05;;;;;;;18.30;4.47;;;9.10;99.90;;;;;;5131654;27;20282;-63
2023/12/11 04:22:32;;;;;;;21.48;5.25;;;9.10;99.90;;;;;;5131788;27;20535;-62
2023/12/11 04:24:59;;;;;;;18.63;4.38;;;9.10;99.90;;;;;;5132364;27;20285;-63
2023/12/11 04:27:26;;;;;;;17.83;4.60;;;9.10;99.90;;;;;;5131278;27;20286;-63
2023/12/11 04:29:54;;;;;;;17.33;5.78;;;9.10;99.90;;;;;;5131796;27;20463;-62
2023/12/11 04:32:21;;;;;;;14.47;5.00;;;9.10;99.90;;;;;;5138333;27;20230;-63
2023/12/11 04:34:48;;;;;;;16.65;5.13;;;9.10;99.90;;;;;;5143487;27;20463;-63
2023/12/11 04:37:15;;;;;;;19.25;5.28;;;9.10;99.90;;;;;;5137993;27;20759;-64
2023/12/11 04:39:41;;;;;;;15.53;4.80;;;9.00;99.90;;;;;;5132927;27;20235;-64
2023/12/11 04:42:08;;;;;;;17.83;6.25;;;9.00;99.90;;;;;;5134568;27;20540;-64
2023/12/11 04:44:35;;;;;;;16.80;5.55;;;9.00;99.90;;;;;;5132499;27;20529;-63
2023/12/11 04:47:04;;;;;;;15.20;5.30;;;9.00;99.90;;;;;;5131531;27;20290;-63
2023/12/11 04:49:31;;;;;;;15.40;4.38;;;9.00;99.90;;;;;;5131418;27;20294;-62
2023/12/11 04:51:59;;;;;;;15.45;4.57;;;9.00;99.90;;;;;;5130771;27;20601;-64
2023/12/11 04:54:26;;;;;;;14.95;5.10;;;9.00;99.90;;;;;;5131204;27;20214;-63
2023/12/11 04:56:53;;;;;;;18.08;5.85;;;9.00;99.90;;;;;;5130972;27;20290;-64
2023/12/11 04:59:19;;;;;;;23.00;6.18;;;9.00;99.90;;;;;;5131313;27;20289;-64
2023/12/11 05:01:46;;;;;;;13.70;4.78;;;9.10;99.90;;;;;;5130939;27;20219;-63
2023/12/11 05:04:15;;;;;;;18.30;5.20;;;9.10;99.90;;;;;;5130981;27;20223;-64
2023/12/11 05:06:43;;;;;;;14.10;4.90;;;9.20;99.90;;;;;;5130912;27;20755;-63
2023/12/11 05:09:10;;;;;;;16.88;5.82;;;9.20;99.90;;;;;;5131181;27;20272;-62
2023/12/11 05:11:37;;;;;;;14.18;5.75;;;9.20;99.90;;;;;;5130239;27;20230;-63
2023/12/11 05:14:05;;;;;;;16.33;4.88;;;9.20;99.90;;;;;;5130622;27;20744;-63
2023/12/11 05:16:31;;;;;;;12.02;5.63;;;9.20;99.90;;;;;;5130943;27;20226;-63
2023/12/11 05:18:58;;;;;;;14.63;5.17;;;9.20;99.90;;;;;;5130873;27;20548;-63
2023/12/11 05:21:26;;;;;;;17.52;5.63;;;9.20;99.90;;;;;;5130536;27;20467;-63
2023/12/11 05:23:54;;;;;;;15.35;5.07;;;9.20;99.90;;;;;;5118077;27;20291;-63
2023/12/11 05:26:21;;;;;;;11.13;4.50;;;9.10;99.90;;;;;;5117308;28;20200;-64
2023/12/11 05:28:48;;;;;;;15.15;5.65;;;9.10;99.90;;;;;;5117342;28;20743;-63
2023/12/11 05:31:15;;;;;;;15.32;4.03;;;9.10;99.90;;;;;;5117061;27;20663;-62
2023/12/11 05:33:42;;;;;;;17.33;5.63;;;9.10;99.90;;;;;;5116880;28;20196;-64
2023/12/11 05:36:09;;;;;;;18.92;4.70;;;9.10;99.90;;;;;;5117204;28;20199;-63
2023/12/11 05:38:37;;;;;;;19.57;6.30;;;9.20;99.90;;;;;;5117000;27;20239;-64
2023/12/11 05:41:05;;;;;;;24.37;6.17;;;9.20;99.90;;;;;;5118142;28;20453;-63
2023/12/11 05:43:32;;;;;;;18.13;5.13;;;9.30;99.90;;;;;;5120817;28;20518;-64
2023/12/11 05:45:59;;;;;;;12.93;5.25;;;9.30;99.90;;;;;;5118373;28;20302;-63
2023/12/11 05:48:26;;;;;;;23.93;5.50;;;9.30;99.90;;;;;;5118193;28;20286;-62
2023/12/11 05:50:53;;;;;;;17.70;5.27;;;9.30;99.90;;;;;;5117030;28;20524;-62
2023/12/11 05:53:19;;;;;;;10.70;3.58;;;9.30;99.90;;;;;;5116462;28;20468;-63
2023/12/11 05:55:48;;;;;;;13.83;5.00;;;9.30;99.90;;;;;;5116396;28;20213;-64
2023/12/11 05:58:15;;;;;;;18.20;4.93;;;9.30;99.90;;;;;;5117514;28;20525;-64
2023/12/11 06:00:41;;;;;;;12.27;4.17;;;9.30;99.90;;;;;;5116559;28;20599;-64
2023/12/11 06:03:08;;;;;;;14.43;4.07;;;9.30;99.90;;;;;;5117090;28;20994;-63
2023/12/11 06:05:35;;;;;;;11.27;4.20;;;9.30;99.90;;;;;;5117503;28;20629;-63
2023/12/11 06:08:02;;;;;;;13.37;4.63;;;9.30;99.90;;;;;;5117573;28;20445;-64
2023/12/11 06:10:29;;;;;;;16.70;4.20;;;9.30;99.90;;;;;;5121551;28;20522;-64
2023/12/11 06:12:57;;;;;;;20.57;5.10;;;9.30;99.90;;;;;;5121102;28;20520;-62
2023/12/11 06:15:24;;;;;;;19.38;4.75;;;9.20;99.90;;;;;;5120634;28;20499;-62
2023/12/11 06:17:51;;;;;;;22.70;5.05;;;9.10;99.90;;;;;;5119243;28;20290;-63
2023/12/11 06:20:18;;;;;;;13.47;4.50;;;9.00;99.90;;;;;;5120072;28;20231;-63
2023/12/11 06:22:47;;;;;;;21.13;5.15;;;8.90;99.90;;;;;;5116758;27;20489;-62
2023/12/11 06:25:14;;;;;;;12.90;4.85;;;8.80;99.90;;;;;;5117386;28;20199;-64
2023/12/11 06:27:41;;;;;;;17.05;4.95;;;8.80;99.90;;;;;;5116384;28;20219;-63
2023/12/11 06:30:10;;;;;;;20.55;5.57;;;8.70;99.90;;;;;;5116523;28;20295;-63
2023/12/11 06:32:37;;;;;;;20.92;5.95;;;8.70;99.90;;;;;;5117798;28;20227;-65
2023/12/11 06:35:05;;;;;;;21.00;5.53;;;8.70;99.90;;;;;;5117562;28;20264;-65
2023/12/11 06:37:32;;;;;;;19.48;6.82;;;8.70;99.90;;;;;;5118763;28;20207;-63
2023/12/11 06:39:59;;;;;;;20.75;5.28;;;8.60;99.90;;;;;;5115869;28;20628;-63
2023/12/11 06:42:26;;;;;;;19.58;5.50;;;8.60;99.90;;;;;;5117894;28;20668;-62
2023/12/11 06:44:53;;;;;;;16.67;4.70;;;8.60;99.90;;;;;;5116526;28;20199;-63
2023/12/11 06:47:22;;;;;;;17.20;4.53;;;8.60;99.90;;;;;;5116429;28;20207;-62
2023/12/11 06:49:48;;;;;;;17.80;4.75;;;8.60;99.90;;;;;;5116349;28;20327;-64
2023/12/11 06:52:15;;;;;;;18.98;5.32;;;8.60;99.90;;;;;;5117571;28;20255;-63
2023/12/11 06:54:42;;;;;;;17.85;4.05;;;8.60;99.90;;;;;;5115481;28;20238;-64
2023/12/11 06:57:09;;;;;;;20.33;4.90;;;8.60;99.90;;;;;;5116050;28;20306;-63
2023/12/11 06:59:36;;;;;;;16.20;4.07;;;8.50;99.90;;;;;;5117167;28;20238;-63
2023/12/11 07:02:04;;;;;;;18.48;4.90;;;8.50;99.90;;;;;;5120397;27;20639;-62
2023/12/11 07:04:32;;;;;;;14.43;4.40;;;8.50;99.90;;;;;;5123194;28;20203;-64
2023/12/11 07:06:59;;;;;;;10.43;3.30;;;8.50;99.90;;;;;;5118726;28;20274;-63
2023/12/11 07:09:27;;;;;;;12.80;3.95;;;8.40;99.90;;;;;;5117817;28;20286;-61
2023/12/11 07:11:54;;;;;;;14.95;4.70;;;8.40;99.90;;;;;;5116036;28;20667;-64
2023/12/11 07:14:22;;;;;;;14.50;4.68;;;8.40;99.90;;;;;;5116153;28;20624;-63
2023/12/11 07:16:49;;;;;;;18.52;4.35;;;8.40;99.90;;;;;;5116017;28;20638;-63
2023/12/11 07:19:16;;;;;;;16.05;4.10;;;8.40;99.90;;;;;;5116322;28;20199;-62
2023/12/11 07:21:45;;;;;;;13.90;4.18;;;8.40;99.90;;;;;;5115524;28;20243;-64
2023/12/11 07:24:12;;;;;;;21.83;4.90;;;8.40;99.90;;;;;;5115776;28;20202;-63
2023/12/11 07:26:39;;;;;;;16.40;4.28;;;8.40;99.90;;;;;;5116277;28;20282;-63
2023/12/11 07:29:07;;;;;;;13.48;5.38;;;8.40;99.90;;;;;;5115814;28;20282;-63
2023/12/11 07:31:34;;;;;;;13.82;3.92;;;8.40;99.90;;;;;;5115180;28;20328;-63
2023/12/11 07:34:01;;;;;;;18.70;4.05;;;8.40;99.90;;;;;;5115167;27;20199;-63
2023/12/11 07:36:28;;;;;;;15.50;3.72;;;8.40;99.90;;;;;;5115501;28;20199;-63
2023/12/11 07:38:56;;;;;;;10.73;4.00;;;8.40;99.90;;;;;;5114947;28;20668;-64
2023/12/11 07:41:23;;;;;;;9.32;3.72;;;8.40;99.90;;;;;;5115298;28;20239;-63
2023/12/11 07:43:51;;;;;;;15.88;4.80;;;8.40;99.90;;;;;;5115081;28;20278;-62
2023/12/11 07:46:18;;;;;;;14.98;3.97;;;8.40;99.90;;;;;;5114889;28;20327;-63
2023/12/11 07:48:44;;;;;;;15.88;4.25;;;8.40;99.90;;;;;;5115300;28;20204;-62
2023/12/11 07:51:18;;;;;;;16.73;4.47;;;8.40;99.90;;;;;;5115000;28;20302;-63
2023/12/11 07:53:45;;;;;;;17.50;4.95;;;8.50;99.90;;;;;;5114527;28;20757;-64
2023/12/11 07:56:20;;;;;;;18.42;4.53;;;8.50;99.90;;;;;;5114966;28;20306;-63
2023/12/11 07:58:47;;;;;;;12.20;4.75;;;8.50;99.90;;;;;;5114240;28;20219;-64
2023/12/11 08:01:14;;;;;;;10.10;4.18;;;8.50;99.90;;;;;;5114537;28;20636;-63
2023/12/11 08:03:41;;;;;;;7.05;4.57;;;8.60;99.90;;;;;;5121431;28;20218;-63
2023/12/11 08:06:09;;;;;;;11.10;3.80;;;8.60;99.90;;;;;;5121379;28;20613;-63
2023/12/11 08:08:40;;;;;;;19.27;4.18;;;8.60;99.90;;;;;;5119767;28;20200;-64
2023/12/11 08:11:15;;;;;;;17.98;4.30;;;8.60;99.90;;;;;;5118110;28;20245;-63
2023/12/11 08:13:43;;;;;;;19.77;3.88;;;8.60;99.90;;;;;;5115508;28;20203;-63
2023/12/11 08:16:12;;;;;;;13.13;3.75;;;8.60;99.90;;;;;;5116065;28;20230;-63
2023/12/11 08:18:38;;;;;;;15.18;4.88;;;8.60;99.90;;;;;;5115104;28;20703;-63
2023/12/11 08:21:06;;;;;;;17.38;4.50;;;8.70;99.90;;;;;;5117481;28;20247;-64
2023/12/11 08:23:33;;;;;;;10.02;4.60;;;8.70;99.90;;;;;;5118907;28;20238;-63
2023/12/11 08:26:00;;;;;;;10.50;3.33;;;8.70;99.90;;;;;;5117998;28;20204;-64
2023/12/11 08:28:27;;;;;;;10.38;3.72;;;8.70;99.90;;;;;;5120093;28;20227;-63
2023/12/11 08:30:55;;;;;;;7.60;3.55;;;8.70;99.90;;;;;;5117650;28;20684;-65
2023/12/11 08:33:22;;;;;;;13.45;4.30;;;8.70;99.90;;;;;;5118316;28;20284;-64
2023/12/11 08:35:49;;;;;;;12.73;3.78;;;8.70;99.90;;;;;;5117402;28;20231;-64
2023/12/11 08:38:16;;;;;;;8.60;3.47;;;8.70;99.90;;;;;;5115948;28;20200;-63
2023/12/11 08:40:44;;;;;;;11.70;3.67;;;8.70;99.90;;;;;;5114738;28;20295;-63
2023/12/11 08:43:12;;;;;;;11.23;3.42;;;8.80;99.90;;;;;;5114592;28;20192;-64
2023/12/11 08:45:39;;;;;;;15.80;4.65;;;8.80;99.90;;;;;;5114092;28;20202;-63
2023/12/11 08:48:07;;;;;;;14.68;4.38;;;8.80;99.90;;;;;;5114182;28;20235;-63
2023/12/11 08:50:34;;;;;;;9.45;3.33;;;8.80;99.90;;;;;;5113674;28;20227;-64
2023/12/11 08:53:03;;;;;;;14.70;3.72;;;8.90;99.90;;;;;;5115957;28;20284;-64
2023/12/11 08:55:30;;;;;;;9.95;3.20;;;8.90;99.90;;;;;;5118263;28;20200;-63
2023/12/11 08:57:57;;;;;;;14.07;3.83;;;8.90;99.90;;;;;;5115440;28;20306;-66
2023/12/11 09:00:24;;;;;;;11.98;3.83;;;9.00;99.90;;;;;;5118034;28;20203;-67
2023/12/11 09:02:51;;;;;;;8.60;3.40;;;9.00;99.90;;;;;;5117997;28;20294;-67
2023/12/11 09:05:20;;;;;;;6.93;3.30;;;9.10;99.90;;;;;;5118079;28;20696;-66
2023/12/11 09:07:47;;;;;;;9.13;3.97;;;9.10;99.90;;;;;;5118021;28;20469;-69
2023/12/11 09:10:14;;;;;;;13.25;3.80;;;9.10;99.90;;;;;;5117583;28;20253;-67
2023/12/11 09:12:41;;;;;;;6.45;3.30;;;9.20;99.90;;;;;;5117397;28;20253;-68
2023/12/11 09:15:09;;;;;;;10.13;3.80;;;9.20;99.90;;;;;;5118453;28;20204;-69
2023/12/11 09:17:36;;;;;;;14.13;4.15;;;9.30;99.90;;;;;;5117466;28;20238;-66
2023/12/11 09:20:04;;;;;;;8.05;4.05;;;9.30;99.90;;;;;;5117639;28;20242;-65
2023/12/11 09:22:33;;;;;;;8.70;4.15;;;9.20;99.90;;;;;;5117548;28;20298;-67
2023/12/11 09:25:00;;;;;;;8.82;3.30;;;9.20;99.90;;;;;;5117510;28;20235;-65
2023/12/11 09:27:26;;;;;;;12.07;4.32;;;9.20;99.90;;;;;;5117701;28;20286;-64
2023/12/11 09:29:53;;;;;;;10.07;4.15;;;9.10;99.90;;;;;;5117410;28;20238;-64
2023/12/11 09:32:20;;;;;;;10.57;4.32;;;9.10;99.90;;;;;;5120265;28;20279;-65
2023/12/11 09:34:47;;;;;;;10.38;4.53;;;9.10;99.90;;;;;;5126970;28;20256;-65
2023/12/11 09:37:15;;;;;;;12.90;4.00;;;9.10;99.90;;;;;;5129184;28;20206;-66
2023/12/11 09:39:43;;;;;;;8.55;4.03;;;9.10;99.90;;;;;;5124120;28;20442;-65
2023/12/11 09:42:11;;;;;;;10.95;3.63;;;9.00;99.90;;;;;;5120153;28;20220;-63
2023/12/11 09:44:38;;;;;;;6.40;3.75;;;9.00;99.90;;;;;;5118413;28;20223;-65
2023/12/11 09:47:10;;;;;;;7.25;4.13;;;9.00;99.90;;;;;;5117425;28;20625;-66
2023/12/11 09:49:38;;;;;;;13.52;5.13;;;9.00;99.90;;;;;;5117626;28;20219;-64
2023/12/11 09:52:04;;;;;;;8.50;4.53;;;9.00;99.90;;;;;;5117098;28;20215;-65
2023/12/11 09:54:31;;;;;;;17.30;3.58;;;9.00;99.90;;;;;;5117543;28;20200;-65
2023/12/11 09:57:01;;;;;;;10.73;5.20;;;9.00;99.90;;;;;;5117521;28;20207;-66
2023/12/11 09:59:30;;;;;;;13.13;5.10;;;9.00;99.90;;;;;;5116989;28;20704;-64
2023/12/11 10:01:58;;;;;;;7.68;4.53;;;9.00;99.90;;;;;;5117124;28;20220;-65
2023/12/11 10:04:24;;;;;;;14.43;5.55;;;8.90;99.90;;;;;;5116822;28;20654;-65
2023/12/11 10:06:52;;;;;;;7.80;5.03;;;8.90;99.90;;;;;;5116853;28;20677;-65
2023/12/11 10:09:29;;;;;;;5.50;4.20;;;8.90;99.90;;;;;;5116562;28;20200;-65
2023/12/11 10:12:02;;;;;;;7.82;4.57;;;8.90;99.90;;;;;;5116826;28;20781;-64
2023/12/11 10:14:30;;;;;;;6.60;4.78;;;8.90;99.90;;;;;;5117025;28;20300;-64
2023/12/11 10:16:57;;;;;;;14.52;5.32;;;8.90;99.90;;;;;;5116359;28;20196;-64
2023/12/11 10:19:33;;;;;;;10.48;5.38;;;8.90;99.90;;;;;;5117863;28;20295;-64
2023/12/11 10:22:01;;;;;;;11.85;4.88;;;8.90;99.90;;;;;;5117647;27;20227;-64
2023/12/11 10:24:30;;;;;;;10.23;4.90;;;8.90;99.90;;;;;;5118992;28;20619;-65
2023/12/11 10:26:58;;;;;;;9.02;5.25;;;8.90;99.90;;;;;;5117902;28;20245;-65
2023/12/11 10:29:30;;;;;;;11.65;4.75;;;9.00;99.90;;;;;;5117801;28;20261;-64
2023/12/11 10:32:01;;;;;;;11.40;4.72;;;9.00;99.90;;;;;;5117602;28;20224;-65
2023/12/11 10:34:42;;;;;;;15.50;6.25;;;9.00;99.90;;;;;;5119924;28;20200;-64
2023/12/11 10:37:09;;;;;;;7.45;4.35;;;9.00;99.90;;;;;;5121021;28;20200;-65
2023/12/11 10:39:36;;;;;;;10.00;3.78;;;9.00;99.90;;;;;;5121399;28;20204;-64
2023/12/11 10:42:14;;;;;;;13.65;4.10;;;9.00;99.90;;;;;;5115656;28;20311;-64
2023/12/11 10:44:42;;;;;;;5.93;4.35;;;9.00;99.90;;;;;;5115800;28;20202;-63
2023/12/11 10:47:09;;;;;;;5.47;3.45;;;9.00;99.90;;;;;;5115796;28;20287;-64
2023/12/11 10:49:37;;;;;;;9.07;3.28;;;8.90;99.90;;;;;;5115332;28;20626;-63
2023/12/11 10:52:04;;;;;;;8.00;3.80;;;8.90;99.90;;;;;;5114921;28;20227;-64
2023/12/11 10:54:32;;;;;;;6.38;3.58;;;8.90;99.90;;;;;;5117002;28;20220;-64
2023/12/11 10:57:02;;;;;;;6.38;3.50;;;8.90;99.90;;;;;;5115130;28;20210;-64
2023/12/11 10:59:31;;;;;;;6.07;3.30;;;8.90;99.90;;;;;;5115976;28;20203;-65
2023/12/11 11:02:01;;;;;;;6.45;2.88;;;8.90;99.90;;;;;;5124213;28;20249;-65
2023/12/11 11:04:31;;;;;;;4.10;2.47;;;9.00;99.90;;;;;;5129564;28;20206;-64
2023/12/11 11:07:03;;;;;;;8.25;2.67;;;9.00;99.90;;;;;;5116869;28;20210;-67
2023/12/11 11:09:36;;;;;;;3.75;2.20;;;9.00;99.90;;;;;;5115493;28;20188;-66
2023/12/11 11:12:13;;;;;;;9.48;3.83;;;9.00;99.90;;;;;;5114750;28;20235;-65
2023/12/11 11:14:48;;;;;;;6.10;2.85;;;9.00;99.90;;;;;;5116292;28;20207;-64
2023/12/11 11:17:17;;;;;;;2.83;2.33;;;9.00;99.90;;;;;;5117175;28;20230;-67
2023/12/11 11:20:09;;;;;;;5.40;2.30;;;9.00;99.90;;;;;;5115606;28;20572;-66
2023/12/11 11:22:36;;;;;;;5.07;2.78;;;9.00;99.90;;;;;;5115261;28;20220;-66
2023/12/11 11:25:30;;;;;;;3.90;2.80;;;9.00;99.90;;;;;;5115456;28;20199;-64
2023/12/11 11:27:57;;;;;;;5.75;2.60;;;9.10;99.90;;;;;;5116196;28;20206;-65
2023/12/11 11:30:54;;;;;;;2.97;2.10;;;9.10;99.90;;;;;;5115569;28;20565;-65
2023/12/11 11:33:22;;;;;;;4.60;2.55;;;9.10;99.90;;;;;;5052504;28;20284;-64
2023/12/11 11:35:50;;;;;;;4.38;2.40;;;9.10;99.90;;;;;;5101361;28;20239;-65
2023/12/11 11:38:18;;;;;;;5.63;2.22;;;9.10;99.90;;;;;;5114764;28;20191;-62
2023/12/11 11:40:45;;;;;;;4.82;2.28;;;9.10;99.90;;;;;;5114744;28;20207;-63
2023/12/11 11:43:13;;;;;;;4.53;2.65;;;9.10;99.90;;;;;;5115640;28;20199;-64
2023/12/11 11:45:40;;;;;;;4.40;2.67;;;9.10;99.90;;;;;;5114862;28;20211;-63
2023/12/11 11:48:07;;;;;;;3.35;2.45;;;9.10;99.90;;;;;;5115520;28;20207;-64
2023/12/11 11:50:36;;;;;;;4.30;2.75;;;9.10;99.90;;;;;;5114883;28;20191;-63
2023/12/11 11:53:09;;;;;;;2.65;2.30;;;9.10;99.90;;;;;;5115155;28;20696;-63
2023/12/11 11:55:39;;;;;;;4.00;2.75;;;9.10;99.90;;;;;;5115033;28;20649;-64
2023/12/11 11:58:12;;;;;;;2.67;2.00;;;9.10;99.90;;;;;;5115237;28;20180;-63
2023/12/11 12:00:39;;;;;;;4.13;2.53;;;9.10;99.90;;;;;;5115498;28;20184;-63
2023/12/11 12:03:08;;;;;;;2.75;2.42;;;9.10;99.90;;;;;;5124441;28;20627;-64
2023/12/11 12:05:37;;;;;;;3.63;1.95;;;9.10;99.90;;;;;;5129668;28;20223;-64
2023/12/11 12:08:08;;;;;;;4.45;2.10;;;9.00;99.90;;;;;;5120882;28;20657;-65
2023/12/11 12:10:35;;;;;;;2.30;1.98;;;9.00;99.90;;;;;;5116804;28;20184;-64
2023/12/11 12:13:04;;;;;;;4.03;2.42;;;9.00;99.90;;;;;;5115472;28;20792;-65
2023/12/11 12:15:30;;;;;;;2.97;2.00;;;9.00;99.90;;;;;;5116189;28;20195;-65
2023/12/11 12:18:06;;;;;;;2.53;1.80;;;9.00;99.90;;;;;;5115412;28;20196;-65
2023/12/11 12:20:33;;;;;;;1.92;1.38;;;9.00;99.90;;;;;;5115198;28;20226;-64
2023/12/11 12:23:02;;;;;;;4.72;1.50;;;9.00;99.90;;;;;;5115229;28;20226;-65
2023/12/11 12:25:31;;;;;;;1.58;0.98;;;9.00;99.90;;;;;;5115622;28;20200;-65
2023/12/11 12:28:03;;;;;;;6.55;1.20;;;9.00;99.90;;;;;;5115247;28;20206;-65
2023/12/11 12:30:31;;;;;;;2.97;1.00;;;8.90;99.90;;;;;;5115307;28;20521;-64
2023/12/11 12:32:59;;;;;;;2.25;1.08;;;8.90;99.90;;;;;;5116034;28;20219;-64
2023/12/11 12:35:27;;;;;;;2.47;1.45;;;8.90;99.90;;;;;;5119044;28;20209;-65
2023/12/11 12:37:55;;;;;;;1.65;1.30;;;8.90;99.90;;;;;;5118803;28;20199;-64
2023/12/11 12:40:24;;;;;;;2.55;1.10;;;8.80;99.90;;;;;;5118766;28;20200;-64
2023/12/11 12:42:51;;;;;;;1.65;1.17;;;8.80;99.90;;;;;;5119303;28;20226;-64
2023/12/11 12:45:28;;;;;;;3.75;1.40;;;8.80;99.90;;;;;;5120252;28;20196;-64
2023/12/11 12:47:54;;;;;;;4.20;1.48;;;8.80;99.90;;;;;;5118943;28;20633;-65
2023/12/11 12:50:23;;;;;;;2.47;1.40;;;8.80;99.90;;;;;;5119040;28;20210;-64
2023/12/11 12:52:49;;;;;;;4.85;2.03;;;8.80;99.90;;;;;;5118645;28;20570;-64
2023/12/11 12:55:16;;;;;;;2.65;1.38;;;8.80;99.90;;;;;;5118670;28;20216;-63
2023/12/11 12:57:44;;;;;;;3.53;1.52;;;8.80;99.90;;;;;;5118560;28;20195;-64